Time;durP1;ratioP1;P1;durP2;ratioP2;P2;SDS_P1;SDS_P2;PMS_P1;PMS_P2;Temp;Humidity;BMP_temperature;BMP_pressure;BME280_temperature;BME280_humidity;BME280_pressure;Samples;Min_cycle;Max_cycle;Signal;HPM_P1;HPM_P2
2023/06/02 00:00:00;;;;;;;9.77;3.53;;;13.10;99.90;;;;;;4957920;28;20202;-68
2023/06/02 00:02:29;;;;;;;13.00;3.27;;;13.10;99.90;;;;;;4957054;28;20212;-68
2023/06/02 00:04:57;;;;;;;7.17;3.17;;;13.00;99.90;;;;;;4958997;28;20248;-66
2023/06/02 00:07:25;;;;;;;8.30;2.67;;;13.00;99.90;;;;;;4958824;28;21431;-65
2023/06/02 00:09:50;;;;;;;9.67;3.40;;;13.00;99.90;;;;;;4958809;28;20429;-64
2023/06/02 00:12:16;;;;;;;8.73;2.80;;;13.00;99.90;;;;;;4957003;28;20324;-64
2023/06/02 00:14:42;;;;;;;7.53;2.90;;;12.90;99.90;;;;;;4958920;28;20363;-65
2023/06/02 00:17:12;;;;;;;8.90;3.33;;;12.90;99.90;;;;;;4958403;28;20414;-63
2023/06/02 00:19:42;;;;;;;9.53;3.30;;;12.90;99.90;;;;;;4957594;28;20224;-67
2023/06/02 00:22:13;;;;;;;7.33;3.53;;;12.90;99.90;;;;;;4957041;28;20275;-66
2023/06/02 00:24:40;;;;;;;7.23;3.20;;;12.80;99.90;;;;;;4929406;29;20304;-61
2023/06/02 00:27:07;;;;;;;10.77;3.50;;;12.70;99.90;;;;;;4929172;29;20277;-61
2023/06/02 00:29:32;;;;;;;15.00;3.60;;;12.60;99.90;;;;;;4928388;29;20960;-61
2023/06/02 00:31:58;;;;;;;10.30;3.53;;;12.60;99.90;;;;;;4930393;29;20202;-60
2023/06/02 00:34:23;;;;;;;10.13;2.90;;;12.50;99.90;;;;;;4929930;29;20215;-61
2023/06/02 00:36:49;;;;;;;8.97;3.37;;;12.40;99.90;;;;;;4930311;29;20216;-63
2023/06/02 00:39:14;;;;;;;13.03;4.10;;;12.40;99.90;;;;;;4930644;29;20661;-63
2023/06/02 00:41:40;;;;;;;12.40;3.40;;;12.30;99.90;;;;;;4928000;29;20205;-63
2023/06/02 00:44:05;;;;;;;15.57;4.20;;;12.20;99.90;;;;;;4928601;29;20198;-67
2023/06/02 00:46:31;;;;;;;9.87;3.73;;;12.20;99.90;;;;;;4928622;29;20719;-61
2023/06/02 00:48:56;;;;;;;10.67;3.53;;;12.20;99.90;;;;;;4928944;29;20639;-61
2023/06/02 00:51:22;;;;;;;10.23;3.63;;;12.20;99.90;;;;;;4929131;29;20213;-70
2023/06/02 00:53:49;;;;;;;14.53;4.23;;;12.10;99.90;;;;;;4928551;29;20783;-64
2023/06/02 00:56:16;;;;;;;10.20;4.10;;;12.10;99.90;;;;;;4927344;28;20203;-64
2023/06/02 00:58:45;;;;;;;10.57;3.50;;;12.00;99.90;;;;;;4928938;29;20208;-63
2023/06/02 01:01:18;;;;;;;12.00;3.67;;;12.10;99.90;;;;;;4926696;29;20646;-64
2023/06/02 01:03:45;;;;;;;14.33;4.30;;;12.10;99.90;;;;;;4926341;29;20232;-65
2023/06/02 01:06:13;;;;;;;11.43;3.07;;;12.10;99.90;;;;;;4928051;28;20922;-64
2023/06/02 01:08:40;;;;;;;12.00;3.40;;;12.10;99.90;;;;;;4925003;29;20225;-66
2023/06/02 01:11:07;;;;;;;15.00;3.53;;;12.10;99.90;;;;;;4928346;28;21266;-65
2023/06/02 01:13:33;;;;;;;7.47;3.23;;;12.00;99.90;;;;;;4926137;29;20236;-65
2023/06/02 01:15:59;;;;;;;13.70;4.53;;;12.00;99.90;;;;;;4921722;29;20289;-65
2023/06/02 01:18:26;;;;;;;9.53;3.30;;;11.90;99.90;;;;;;4927325;29;20381;-65
2023/06/02 01:20:57;;;;;;;11.87;3.63;;;11.90;99.90;;;;;;4925419;28;20214;-65
2023/06/02 01:23:30;;;;;;;11.40;3.80;;;11.90;99.90;;;;;;4936354;28;20236;-65
2023/06/02 01:25:57;;;;;;;6.43;2.87;;;11.90;99.90;;;;;;4947539;28;20202;-65
2023/06/02 01:28:23;;;;;;;11.77;4.40;;;11.80;99.90;;;;;;4946718;28;20328;-64
2023/06/02 01:30:52;;;;;;;7.20;3.30;;;11.90;99.90;;;;;;4946892;28;20828;-64
2023/06/02 01:33:26;;;;;;;7.10;2.90;;;11.80;99.90;;;;;;4944992;28;20221;-64
2023/06/02 01:35:59;;;;;;;15.93;5.00;;;11.80;99.90;;;;;;4950089;28;20268;-64
2023/06/02 01:38:26;;;;;;;16.67;4.20;;;11.70;99.90;;;;;;4950210;28;20201;-64
2023/06/02 01:40:59;;;;;;;8.60;3.73;;;11.70;99.90;;;;;;4948701;28;20228;-64
2023/06/02 01:43:26;;;;;;;5.90;3.27;;;11.70;99.90;;;;;;4948413;28;21032;-64
2023/06/02 01:45:52;;;;;;;10.97;4.07;;;11.70;99.90;;;;;;4952235;28;20307;-64
2023/06/02 01:48:17;;;;;;;11.40;3.53;;;11.60;99.90;;;;;;4949978;28;20360;-64
2023/06/02 01:50:43;;;;;;;12.30;3.43;;;11.60;99.90;;;;;;4950209;28;20535;-64
2023/06/02 01:53:09;;;;;;;10.57;3.40;;;11.60;99.90;;;;;;4950731;28;20983;-64
2023/06/02 01:55:35;;;;;;;12.20;4.07;;;11.60;99.90;;;;;;4951511;28;20341;-64
2023/06/02 01:58:00;;;;;;;11.53;3.97;;;11.60;99.90;;;;;;4954583;28;20208;-64
2023/06/02 02:00:27;;;;;;;8.10;3.30;;;11.60;99.90;;;;;;4951635;28;20216;-65
2023/06/02 02:02:53;;;;;;;8.83;3.87;;;11.50;99.90;;;;;;4959800;28;20244;-63
2023/06/02 02:05:18;;;;;;;9.70;4.17;;;11.50;99.90;;;;;;4960278;28;20471;-63
2023/06/02 02:07:45;;;;;;;14.03;4.50;;;11.40;99.90;;;;;;4938591;28;20198;-63
2023/06/02 02:10:12;;;;;;;13.23;3.37;;;11.40;99.90;;;;;;4960942;28;20896;-63
2023/06/02 02:12:41;;;;;;;10.63;3.40;;;11.40;99.90;;;;;;4960975;28;20660;-63
2023/06/02 02:15:07;;;;;;;9.77;4.80;;;11.40;99.90;;;;;;4948736;28;20291;-63
2023/06/02 02:17:36;;;;;;;7.27;3.00;;;11.30;99.90;;;;;;4950234;28;20201;-63
2023/06/02 02:20:05;;;;;;;10.97;3.97;;;11.30;99.90;;;;;;4950662;28;20223;-62
2023/06/02 02:22:31;;;;;;;9.23;3.60;;;11.30;99.90;;;;;;4950132;28;20229;-62
2023/06/02 02:24:56;;;;;;;15.60;5.07;;;11.30;99.90;;;;;;4948390;28;20230;-63
2023/06/02 02:27:22;;;;;;;13.20;3.40;;;11.30;99.90;;;;;;4951425;28;20219;-63
2023/06/02 02:29:48;;;;;;;13.50;4.27;;;11.20;99.90;;;;;;4951161;28;20706;-63
2023/06/02 02:32:13;;;;;;;13.67;4.50;;;11.10;99.90;;;;;;4952372;28;20205;-63
2023/06/02 02:34:38;;;;;;;6.87;3.40;;;11.10;99.90;;;;;;4958050;28;20205;-63
2023/06/02 02:37:06;;;;;;;10.00;3.97;;;11.20;99.90;;;;;;4958996;28;21082;-63
2023/06/02 02:39:32;;;;;;;13.70;4.50;;;11.20;99.90;;;;;;4959543;28;20740;-63
2023/06/02 02:41:58;;;;;;;12.53;4.27;;;11.10;99.90;;;;;;4960785;28;20247;-63
2023/06/02 02:44:23;;;;;;;10.27;3.97;;;11.10;99.90;;;;;;4959876;28;20597;-62
2023/06/02 02:46:49;;;;;;;14.20;4.17;;;11.10;99.90;;;;;;4954988;28;20208;-62
2023/06/02 02:49:15;;;;;;;9.93;4.33;;;11.20;99.90;;;;;;4960332;28;20196;-62
2023/06/02 02:51:40;;;;;;;17.20;5.60;;;11.20;99.90;;;;;;4958347;28;20207;-62
2023/06/02 02:54:05;;;;;;;15.50;3.53;;;11.20;99.90;;;;;;4959272;28;20204;-62
2023/06/02 02:56:32;;;;;;;8.67;3.27;;;11.20;99.90;;;;;;4956978;28;20799;-62
2023/06/02 02:58:58;;;;;;;13.53;4.23;;;11.20;99.90;;;;;;4959978;28;20680;-62
2023/06/02 03:01:24;;;;;;;11.83;3.87;;;11.20;99.90;;;;;;4960137;28;20213;-62
2023/06/02 03:03:50;;;;;;;14.20;4.33;;;11.20;99.90;;;;;;4958084;28;20209;-63
2023/06/02 03:06:18;;;;;;;12.60;4.03;;;11.20;99.90;;;;;;4959957;28;20292;-62
2023/06/02 03:08:46;;;;;;;12.50;4.43;;;11.20;99.90;;;;;;4960098;28;20204;-62
2023/06/02 03:11:13;;;;;;;15.33;4.17;;;11.20;99.90;;;;;;4960088;28;20241;-62
2023/06/02 03:13:38;;;;;;;11.27;3.17;;;11.20;99.90;;;;;;4958489;28;21251;-63
2023/06/02 03:16:04;;;;;;;15.77;4.73;;;11.20;99.90;;;;;;4946240;28;20238;-63
2023/06/02 03:18:30;;;;;;;10.50;4.03;;;11.20;99.90;;;;;;4959524;28;20223;-63
2023/06/02 03:20:58;;;;;;;14.43;3.87;;;11.20;99.90;;;;;;4959815;28;20258;-63
2023/06/02 03:23:25;;;;;;;13.13;4.57;;;11.20;99.90;;;;;;4959775;28;20332;-62
2023/06/02 03:25:51;;;;;;;13.23;4.73;;;11.30;99.90;;;;;;4957844;28;20212;-62
2023/06/02 03:28:17;;;;;;;16.57;3.97;;;11.40;99.90;;;;;;4959781;28;20268;-63
2023/06/02 03:30:42;;;;;;;13.93;4.23;;;11.40;99.90;;;;;;4958745;28;21554;-63
2023/06/02 03:33:08;;;;;;;13.97;4.50;;;11.40;99.90;;;;;;4959160;28;20424;-63
2023/06/02 03:35:33;;;;;;;9.40;3.50;;;11.40;99.90;;;;;;4957634;28;20199;-64
2023/06/02 03:37:59;;;;;;;14.93;4.47;;;11.40;99.90;;;;;;4959455;28;20207;-63
2023/06/02 03:40:25;;;;;;;13.00;3.90;;;11.30;99.90;;;;;;4959551;28;20294;-63
2023/06/02 03:42:50;;;;;;;11.80;4.00;;;11.30;99.90;;;;;;4959214;28;20693;-63
2023/06/02 03:45:16;;;;;;;11.90;3.57;;;11.30;99.90;;;;;;4958709;28;20204;-63
2023/06/02 03:47:41;;;;;;;14.37;3.97;;;11.30;99.90;;;;;;4959324;28;20207;-63
2023/06/02 03:50:07;;;;;;;13.33;4.33;;;11.30;99.90;;;;;;4956713;28;20220;-63
2023/06/02 03:52:32;;;;;;;16.07;4.40;;;11.20;99.90;;;;;;4958420;28;20351;-64
2023/06/02 03:54:58;;;;;;;6.37;3.50;;;11.20;99.90;;;;;;4958415;28;20690;-63
2023/06/02 03:57:24;;;;;;;17.13;4.40;;;11.20;99.90;;;;;;4958509;28;20211;-63
2023/06/02 03:59:50;;;;;;;13.37;4.40;;;11.30;99.90;;;;;;4956440;28;20200;-63
2023/06/02 04:02:16;;;;;;;14.27;4.77;;;11.30;99.90;;;;;;4958847;28;20733;-63
2023/06/02 04:04:41;;;;;;;22.63;4.50;;;11.20;99.90;;;;;;4959084;28;20209;-63
2023/06/02 04:07:07;;;;;;;9.57;3.60;;;11.20;99.90;;;;;;4958560;28;20552;-64
2023/06/02 04:09:34;;;;;;;8.03;3.20;;;11.20;99.90;;;;;;4955159;28;20686;-63
2023/06/02 04:11:59;;;;;;;12.43;4.17;;;11.30;99.90;;;;;;4946412;28;20541;-64
2023/06/02 04:14:25;;;;;;;10.40;4.50;;;11.30;99.90;;;;;;4949355;28;20700;-63
2023/06/02 04:16:50;;;;;;;12.73;3.97;;;11.30;99.90;;;;;;4948886;28;20200;-63
2023/06/02 04:19:16;;;;;;;7.77;3.63;;;11.30;99.90;;;;;;4952226;28;20718;-63
2023/06/02 04:21:41;;;;;;;11.00;3.73;;;11.30;99.90;;;;;;4946153;28;20211;-63
2023/06/02 04:24:06;;;;;;;15.07;4.27;;;11.30;99.90;;;;;;4947236;28;20326;-64
2023/06/02 04:26:32;;;;;;;12.67;4.40;;;11.20;99.90;;;;;;4948741;28;20212;-63
2023/06/02 04:28:57;;;;;;;10.97;4.90;;;11.20;99.90;;;;;;4949204;28;20665;-64
2023/06/02 04:31:39;;;;;;;12.73;3.33;;;11.30;99.90;;;;;;4949096;28;20537;-63
2023/06/02 04:34:05;;;;;;;12.23;4.10;;;11.20;99.90;;;;;;4943276;28;20711;-64
2023/06/02 04:36:30;;;;;;;12.90;4.47;;;11.20;99.90;;;;;;4949412;28;20225;-63
2023/06/02 04:38:57;;;;;;;8.90;4.03;;;11.20;99.90;;;;;;4946953;28;20205;-63
2023/06/02 04:41:22;;;;;;;10.40;3.73;;;11.20;99.90;;;;;;4948419;28;20762;-63
2023/06/02 04:43:48;;;;;;;11.63;4.67;;;11.20;99.90;;;;;;4946988;28;20292;-63
2023/06/02 04:46:13;;;;;;;14.27;4.37;;;11.20;99.90;;;;;;4949066;28;20208;-63
2023/06/02 04:48:40;;;;;;;13.27;4.23;;;11.20;99.90;;;;;;4949017;28;20318;-63
2023/06/02 04:51:07;;;;;;;12.23;4.53;;;11.30;99.90;;;;;;4947605;28;20770;-64
2023/06/02 04:53:32;;;;;;;13.13;4.20;;;11.30;99.90;;;;;;4948849;28;20208;-63
2023/06/02 04:55:58;;;;;;;17.60;4.40;;;11.30;99.90;;;;;;4946943;28;20204;-63
2023/06/02 04:58:24;;;;;;;11.37;4.20;;;11.30;99.90;;;;;;4943616;28;20213;-64
2023/06/02 05:00:49;;;;;;;14.90;5.40;;;11.40;99.90;;;;;;4947585;28;20216;-63
2023/06/02 05:03:15;;;;;;;15.17;6.37;;;11.40;99.90;;;;;;4947987;28;20209;-63
2023/06/02 05:05:40;;;;;;;11.90;3.57;;;11.40;99.90;;;;;;4947965;28;20259;-63
2023/06/02 05:08:06;;;;;;;17.73;3.97;;;11.40;99.90;;;;;;4945843;28;20200;-64
2023/06/02 05:10:32;;;;;;;14.03;4.67;;;11.40;99.90;;;;;;4951322;28;20268;-63
2023/06/02 05:12:58;;;;;;;12.20;3.90;;;11.30;99.90;;;;;;4952591;28;20595;-63
2023/06/02 05:15:23;;;;;;;13.57;3.97;;;11.40;99.90;;;;;;4952651;28;20725;-63
2023/06/02 05:17:49;;;;;;;12.97;4.10;;;11.50;99.90;;;;;;4952604;28;20212;-63
2023/06/02 05:20:15;;;;;;;15.50;4.83;;;11.50;99.90;;;;;;4952202;28;20622;-64
2023/06/02 05:22:40;;;;;;;11.67;3.73;;;11.60;99.90;;;;;;4950208;28;20281;-63
2023/06/02 05:25:07;;;;;;;14.27;4.83;;;11.50;99.90;;;;;;4950943;28;20213;-63
2023/06/02 05:27:32;;;;;;;9.67;3.70;;;11.50;99.90;;;;;;4951473;28;20274;-63
2023/06/02 05:29:57;;;;;;;8.50;3.60;;;11.60;99.90;;;;;;4953125;28;20224;-63
2023/06/02 05:32:24;;;;;;;11.70;4.50;;;11.80;99.90;;;;;;4960129;28;20206;-63
2023/06/02 05:34:51;;;;;;;15.33;4.13;;;11.80;99.90;;;;;;4959769;28;20204;-63
2023/06/02 05:37:16;;;;;;;10.10;4.07;;;11.90;99.90;;;;;;4961156;28;20213;-64
2023/06/02 05:39:43;;;;;;;14.37;4.13;;;11.90;99.90;;;;;;4961599;28;20217;-64
2023/06/02 05:42:08;;;;;;;13.27;4.50;;;11.90;99.90;;;;;;4961379;28;20247;-63
2023/06/02 05:44:34;;;;;;;11.07;4.20;;;12.00;99.90;;;;;;4952129;28;20215;-64
2023/06/02 05:46:59;;;;;;;16.73;5.13;;;12.10;99.90;;;;;;4951875;28;20277;-63
2023/06/02 05:49:25;;;;;;;10.40;4.90;;;11.90;99.90;;;;;;4949462;28;20672;-63
2023/06/02 05:51:50;;;;;;;13.30;3.93;;;12.10;99.90;;;;;;4951421;28;20252;-63
2023/06/02 05:54:16;;;;;;;15.80;4.87;;;12.20;99.90;;;;;;4951208;28;20223;-63
2023/06/02 05:56:41;;;;;;;17.60;3.90;;;12.30;99.90;;;;;;4951607;28;20190;-65
2023/06/02 05:59:08;;;;;;;12.50;4.10;;;12.40;99.90;;;;;;4954841;28;20210;-63
2023/06/02 06:01:34;;;;;;;17.17;4.00;;;12.30;99.90;;;;;;4959268;28;20203;-63
2023/06/02 06:03:59;;;;;;;15.00;4.13;;;12.30;99.90;;;;;;4961116;28;20231;-63
2023/06/02 06:06:24;;;;;;;10.53;3.83;;;12.40;99.90;;;;;;4959298;28;20212;-63
2023/06/02 06:08:50;;;;;;;14.27;4.57;;;12.50;99.90;;;;;;4951652;28;20199;-63
2023/06/02 06:11:16;;;;;;;12.83;4.67;;;12.50;99.90;;;;;;4949876;28;20236;-63
2023/06/02 06:13:42;;;;;;;12.97;4.20;;;12.50;99.90;;;;;;4948941;28;20213;-63
2023/06/02 06:16:07;;;;;;;16.57;5.10;;;12.40;99.90;;;;;;4948801;28;20763;-64
2023/06/02 06:18:33;;;;;;;11.80;4.20;;;12.50;99.90;;;;;;4951030;28;20209;-64
2023/06/02 06:20:58;;;;;;;8.87;4.17;;;12.60;99.90;;;;;;4950015;28;20341;-64
2023/06/02 06:23:25;;;;;;;15.63;4.83;;;12.60;99.90;;;;;;4951232;28;20222;-64
2023/06/02 06:25:50;;;;;;;10.47;4.33;;;12.40;99.90;;;;;;4954855;28;20290;-63
2023/06/02 06:28:16;;;;;;;15.63;4.07;;;12.50;99.90;;;;;;4948843;28;20382;-63
2023/06/02 06:30:41;;;;;;;14.10;4.57;;;12.60;99.90;;;;;;4949301;28;20788;-63
2023/06/02 06:33:09;;;;;;;13.93;4.23;;;12.60;99.90;;;;;;4951166;28;20190;-63
2023/06/02 06:35:35;;;;;;;14.67;5.20;;;12.60;99.90;;;;;;4951435;28;20731;-63
2023/06/02 06:38:01;;;;;;;10.30;3.77;;;12.70;99.90;;;;;;4951536;28;20189;-63
2023/06/02 06:40:27;;;;;;;16.27;4.40;;;12.70;99.90;;;;;;4948979;28;20214;-63
2023/06/02 06:42:52;;;;;;;17.40;6.00;;;12.90;99.90;;;;;;4949318;28;20218;-63
2023/06/02 06:45:18;;;;;;;21.27;5.50;;;12.80;99.90;;;;;;4950482;28;20490;-63
2023/06/02 06:47:43;;;;;;;13.63;4.57;;;12.80;99.90;;;;;;4950274;28;20232;-63
2023/06/02 06:50:09;;;;;;;16.50;5.00;;;13.00;99.90;;;;;;4950017;28;20300;-63
2023/06/02 06:52:35;;;;;;;12.47;4.70;;;13.10;99.90;;;;;;4948187;28;20676;-65
2023/06/02 06:55:00;;;;;;;11.00;4.00;;;13.10;99.90;;;;;;4950725;28;20210;-63
2023/06/02 06:57:26;;;;;;;16.47;4.57;;;12.90;99.90;;;;;;4950918;28;20202;-64
2023/06/02 06:59:51;;;;;;;21.10;5.50;;;13.30;99.90;;;;;;4950427;28;20236;-63
2023/06/02 07:02:18;;;;;;;11.43;4.27;;;13.30;99.90;;;;;;4951186;28;20216;-63
2023/06/02 07:04:43;;;;;;;10.40;4.80;;;13.50;99.90;;;;;;4949820;28;20260;-64
2023/06/02 07:07:12;;;;;;;7.80;4.33;;;13.60;99.90;;;;;;4945106;28;20212;-63
2023/06/02 07:09:37;;;;;;;17.37;5.60;;;13.80;99.90;;;;;;4949892;28;20772;-63
2023/06/02 07:12:03;;;;;;;13.60;5.43;;;13.90;99.90;;;;;;4949555;28;20206;-63
2023/06/02 07:14:29;;;;;;;18.27;5.43;;;14.00;99.90;;;;;;4951868;28;20208;-63
2023/06/02 07:16:55;;;;;;;10.30;4.43;;;14.20;99.90;;;;;;4958551;28;20193;-63
2023/06/02 07:19:21;;;;;;;11.20;4.60;;;14.00;99.90;;;;;;4957448;28;20260;-63
2023/06/02 07:21:46;;;;;;;12.90;4.73;;;14.20;99.90;;;;;;4959252;28;20608;-63
2023/06/02 07:24:12;;;;;;;8.13;4.43;;;14.20;99.90;;;;;;4959286;28;20229;-63
2023/06/02 07:26:38;;;;;;;7.67;3.93;;;14.30;99.90;;;;;;4959289;28;20306;-64
2023/06/02 07:29:03;;;;;;;16.53;5.83;;;14.40;99.90;;;;;;4959255;28;20296;-63
2023/06/02 07:31:29;;;;;;;12.23;4.00;;;14.50;99.90;;;;;;4956970;28;20221;-63
2023/06/02 07:33:54;;;;;;;11.90;5.03;;;14.50;99.90;;;;;;4959007;28;20339;-63
2023/06/02 07:36:20;;;;;;;18.77;6.97;;;14.50;99.90;;;;;;4959013;28;20203;-63
2023/06/02 07:38:45;;;;;;;8.63;4.80;;;14.50;99.90;;;;;;4959436;28;20185;-63
2023/06/02 07:41:11;;;;;;;8.00;5.07;;;14.60;99.90;;;;;;4959091;28;20201;-64
2023/06/02 07:43:36;;;;;;;10.83;5.30;;;14.70;99.90;;;;;;4958490;28;20198;-65
2023/06/02 07:46:03;;;;;;;18.33;6.53;;;14.80;99.90;;;;;;4952101;28;20292;-64
2023/06/02 07:48:28;;;;;;;10.33;5.90;;;14.80;99.90;;;;;;4954959;28;20300;-63
2023/06/02 07:50:54;;;;;;;12.33;5.97;;;14.80;99.90;;;;;;4935011;28;20311;-62
2023/06/02 07:53:19;;;;;;;16.27;5.13;;;14.80;99.90;;;;;;4957924;28;20213;-61
2023/06/02 07:55:45;;;;;;;13.40;4.90;;;14.90;99.90;;;;;;4949257;28;20202;-63
2023/06/02 07:58:10;;;;;;;11.63;4.60;;;14.70;99.90;;;;;;4947403;28;20281;-63
2023/06/02 08:00:38;;;;;;;6.60;4.90;;;15.00;99.90;;;;;;4948959;28;20248;-63
2023/06/02 08:03:03;;;;;;;9.30;4.43;;;15.00;99.90;;;;;;4948691;28;20313;-63
2023/06/02 08:05:29;;;;;;;12.70;5.10;;;15.00;99.90;;;;;;4949232;28;20205;-63
2023/06/02 08:07:54;;;;;;;8.00;4.47;;;15.10;99.90;;;;;;4948435;28;20221;-63
2023/06/02 08:10:20;;;;;;;11.03;5.20;;;15.30;99.90;;;;;;4946943;28;20218;-63
2023/06/02 08:12:45;;;;;;;11.37;4.27;;;14.80;99.90;;;;;;4944894;28;20800;-62
2023/06/02 08:15:11;;;;;;;12.87;4.77;;;15.00;99.90;;;;;;4945500;28;20201;-63
2023/06/02 08:17:36;;;;;;;9.90;4.43;;;15.00;99.90;;;;;;4948373;28;20201;-64
2023/06/02 08:20:03;;;;;;;13.63;5.10;;;15.10;99.90;;;;;;4943415;28;20206;-63
2023/06/02 08:22:33;;;;;;;12.73;4.37;;;15.30;99.90;;;;;;4948360;28;20247;-63
2023/06/02 08:24:58;;;;;;;11.40;5.07;;;15.20;99.90;;;;;;4948687;28;20205;-70
2023/06/02 08:27:24;;;;;;;11.40;3.90;;;15.40;99.90;;;;;;4949815;28;20748;-74
2023/06/02 08:29:51;;;;;;;11.53;3.90;;;15.50;99.90;;;;;;4947162;28;20222;-75
2023/06/02 08:32:24;;;;;;;8.27;3.57;;;15.70;99.90;;;;;;4953023;28;20219;-73
2023/06/02 08:34:50;;;;;;;11.77;4.40;;;16.10;99.90;;;;;;4946835;28;20229;-75
2023/06/02 08:37:17;;;;;;;7.10;3.27;;;16.20;99.90;;;;;;4948887;28;20237;-73
2023/06/02 08:39:43;;;;;;;5.43;3.10;;;16.10;99.90;;;;;;4949223;28;20689;-73
2023/06/02 08:42:10;;;;;;;5.93;2.77;;;15.90;99.90;;;;;;4949107;28;20198;-73
2023/06/02 08:44:36;;;;;;;4.47;2.97;;;15.90;99.90;;;;;;4947073;28;20193;-73
2023/06/02 08:47:03;;;;;;;6.43;3.60;;;16.10;99.90;;;;;;4951044;28;20356;-71
2023/06/02 08:49:29;;;;;;;4.53;2.87;;;16.30;99.90;;;;;;4950311;28;20206;-72
2023/06/02 08:52:02;;;;;;;3.03;2.13;;;16.30;99.90;;;;;;4949583;28;20231;-72
2023/06/02 08:54:30;;;;;;;2.97;2.67;;;16.50;99.90;;;;;;4957140;28;20202;-76
2023/06/02 08:56:57;;;;;;;3.20;2.40;;;16.90;99.90;;;;;;4940700;28;20288;-76
2023/06/02 08:59:24;;;;;;;4.27;2.23;;;17.00;99.90;;;;;;4948899;28;20682;-73
2023/06/02 09:01:49;;;;;;;5.23;2.10;;;17.10;99.90;;;;;;4947444;28;20232;-71
2023/06/02 09:04:16;;;;;;;5.73;2.17;;;17.20;99.90;;;;;;4957955;28;20236;-71
2023/06/02 09:06:43;;;;;;;5.67;2.97;;;17.20;99.90;;;;;;4956127;28;20201;-71
2023/06/02 09:09:09;;;;;;;3.47;2.23;;;17.30;99.90;;;;;;4957801;28;20784;-70
2023/06/02 09:11:34;;;;;;;2.47;2.07;;;17.10;99.90;;;;;;4958283;28;20214;-74
2023/06/02 09:14:00;;;;;;;4.60;2.30;;;17.00;99.90;;;;;;4958039;28;20293;-73
2023/06/02 09:16:40;;;;;;;3.80;1.77;;;17.10;99.90;;;;;;4947538;28;20223;-73
2023/06/02 09:19:06;;;;;;;2.77;1.63;;;17.20;99.60;;;;;;4958063;28;20199;-73
2023/06/02 09:21:33;;;;;;;2.87;1.67;;;17.40;99.80;;;;;;4956971;28;20293;-72
2023/06/02 09:24:00;;;;;;;3.53;1.90;;;17.50;99.00;;;;;;4958098;28;20230;-73
2023/06/02 09:26:28;;;;;;;2.03;1.90;;;17.80;97.60;;;;;;4955659;28;20316;-73
2023/06/02 09:29:01;;;;;;;1.90;1.43;;;18.00;92.40;;;;;;4956657;28;20227;-72
2023/06/02 09:31:41;;;;;;;3.67;1.27;;;18.00;91.30;;;;;;4954768;28;20226;-80
2023/06/02 09:34:06;;;;;;;1.83;1.30;;;18.00;88.80;;;;;;4942221;28;20213;-76
2023/06/02 09:36:32;;;;;;;3.27;1.13;;;17.80;84.90;;;;;;4958068;28;20203;-73
2023/06/02 09:38:57;;;;;;;2.93;1.40;;;17.80;78.70;;;;;;4957999;28;20299;-74
2023/06/02 09:41:28;;;;;;;1.67;1.60;;;17.70;77.30;;;;;;4956661;28;20755;-73
2023/06/02 09:43:55;;;;;;;2.53;1.60;;;17.90;78.20;;;;;;4952954;28;20203;-75
2023/06/02 09:46:20;;;;;;;3.90;1.47;;;18.00;77.40;;;;;;4947791;28;20203;-75
2023/06/02 09:48:57;;;;;;;3.33;1.70;;;18.20;75.10;;;;;;4957777;28;20205;-75
2023/06/02 09:51:24;;;;;;;2.67;1.47;;;18.50;77.00;;;;;;4957739;28;20237;-75
2023/06/02 09:53:50;;;;;;;1.77;1.40;;;18.70;77.80;;;;;;4957426;28;20206;-76
2023/06/02 09:56:17;;;;;;;1.97;1.07;;;18.80;78.30;;;;;;4959867;28;20206;-75
2023/06/02 09:58:43;;;;;;;1.53;1.10;;;19.00;75.60;;;;;;4962626;28;20256;-85
2023/06/02 10:01:12;;;;;;;3.63;1.90;;;19.00;82.60;;;;;;4958973;28;20596;-81
2023/06/02 10:03:41;;;;;;;4.27;2.20;;;18.90;84.00;;;;;;4957171;28;20642;-75
2023/06/02 10:06:32;;;;;;;2.47;1.70;;;18.30;87.00;;;;;;4956338;28;20833;-72
2023/06/02 10:09:38;;;;;;;3.63;1.80;;;17.90;87.20;;;;;;4960406;28;20622;-71
2023/06/02 10:12:30;;;;;;;4.03;1.87;;;17.70;83.20;;;;;;4960624;28;20303;-71
2023/06/02 10:15:22;;;;;;;2.33;1.63;;;17.70;82.90;;;;;;4960445;28;20260;-70
2023/06/02 10:18:05;;;;;;;2.87;1.53;;;17.80;78.80;;;;;;4960406;28;20209;-71
2023/06/02 10:20:53;;;;;;;3.33;1.50;;;17.70;77.90;;;;;;4960106;28;20753;-71
2023/06/02 10:23:54;;;;;;;4.20;1.97;;;17.60;76.80;;;;;;4960306;28;20237;-71
2023/06/02 10:26:34;;;;;;;3.93;1.70;;;17.80;88.20;;;;;;4952022;28;20727;-71
2023/06/02 10:29:01;;;;;;;2.33;1.47;;;17.50;82.30;;;;;;4960195;28;20343;-71
2023/06/02 10:31:31;;;;;;;4.83;1.80;;;17.40;79.70;;;;;;4959608;28;20288;-70
2023/06/02 10:33:59;;;;;;;2.03;1.27;;;17.60;78.00;;;;;;4946631;28;20237;-70
2023/06/02 10:36:25;;;;;;;2.73;1.43;;;17.50;76.70;;;;;;4947017;28;20210;-69
2023/06/02 10:38:51;;;;;;;1.90;1.40;;;17.30;77.70;;;;;;4950699;28;20663;-69
2023/06/02 10:41:21;;;;;;;3.63;1.73;;;17.40;81.40;;;;;;4951360;28;20217;-70
2023/06/02 10:44:23;;;;;;;2.63;1.93;;;17.50;79.60;;;;;;4934234;28;20597;-70
2023/06/02 10:47:17;;;;;;;5.03;1.43;;;17.50;88.00;;;;;;4947863;28;20212;-71
2023/06/02 10:49:55;;;;;;;6.43;1.57;;;17.90;80.70;;;;;;4945445;28;20213;-76
2023/06/02 10:52:22;;;;;;;3.03;1.40;;;18.10;79.60;;;;;;4945052;28;20263;-78
2023/06/02 10:55:12;;;;;;;1.67;1.53;;;18.10;78.80;;;;;;4947778;28;20580;-74
2023/06/02 10:57:57;;;;;;;2.83;1.40;;;18.10;84.30;;;;;;4947494;28;20598;-74
2023/06/02 11:00:29;;;;;;;10.80;1.53;;;18.40;80.90;;;;;;4934205;28;20709;-74
2023/06/02 11:02:55;;;;;;;11.93;2.43;;;18.60;78.90;;;;;;4959915;28;20284;-74
2023/06/02 11:05:29;;;;;;;10.73;1.73;;;18.60;79.20;;;;;;4959710;28;20201;-74
2023/06/02 11:08:14;;;;;;;5.17;1.33;;;18.60;80.10;;;;;;4958655;28;20207;-74
2023/06/02 11:10:52;;;;;;;3.57;1.50;;;18.80;78.60;;;;;;4957738;28;20221;-73
2023/06/02 11:13:19;;;;;;;2.43;1.50;;;19.00;79.30;;;;;;4959258;28;20209;-74
2023/06/02 11:15:54;;;;;;;3.53;1.53;;;19.50;78.10;;;;;;4953338;28;20616;-73
2023/06/02 11:18:23;;;;;;;2.80;1.57;;;19.50;79.90;;;;;;4959353;28;20246;-72
2023/06/02 11:20:50;;;;;;;2.60;1.60;;;19.40;75.20;;;;;;4958738;28;20200;-72
2023/06/02 11:23:17;;;;;;;3.63;1.67;;;19.70;75.70;;;;;;4959046;28;20321;-71
2023/06/02 11:25:47;;;;;;;2.40;1.30;;;19.90;75.80;;;;;;4949947;28;20218;-72
2023/06/02 11:28:22;;;;;;;3.20;1.27;;;19.90;72.80;;;;;;4947841;28;20267;-74
2023/06/02 11:31:14;;;;;;;4.83;1.43;;;19.90;72.90;;;;;;4949095;28;20964;-76
2023/06/02 11:33:41;;;;;;;9.23;4.83;;;20.10;74.40;;;;;;4944120;28;20211;-73
2023/06/02 11:36:12;;;;;;;5.00;2.53;;;20.60;73.80;;;;;;4950024;28;20566;-72
2023/06/02 11:38:40;;;;;;;5.90;1.80;;;20.80;69.90;;;;;;4947209;28;20290;-71
2023/06/02 11:41:13;;;;;;;4.23;2.10;;;20.90;69.10;;;;;;4948122;28;20208;-72
2023/06/02 11:43:40;;;;;;;3.23;1.57;;;21.20;68.70;;;;;;4949091;28;20209;-72
2023/06/02 11:46:10;;;;;;;4.80;2.33;;;21.20;64.50;;;;;;4949048;28;20211;-73
2023/06/02 11:48:38;;;;;;;6.40;1.97;;;20.90;67.40;;;;;;4941161;28;20209;-72
2023/06/02 11:51:08;;;;;;;22.23;2.97;;;21.00;66.30;;;;;;4959321;28;20231;-71
2023/06/02 11:53:35;;;;;;;5.07;1.70;;;21.00;66.10;;;;;;4958842;28;20198;-63
2023/06/02 11:56:01;;;;;;;3.33;1.47;;;21.20;63.00;;;;;;4957025;28;20207;-70
2023/06/02 11:58:28;;;;;;;8.47;1.50;;;21.20;61.70;;;;;;4954305;28;20206;-71
2023/06/02 12:01:08;;;;;;;4.73;1.73;;;21.30;65.00;;;;;;4958844;28;20303;-71
2023/06/02 12:03:34;;;;;;;2.23;1.03;;;21.40;64.60;;;;;;4944501;28;20222;-72
2023/06/02 12:06:12;;;;;;;2.33;0.90;;;21.50;59.50;;;;;;4944690;28;20261;-72
2023/06/02 12:08:37;;;;;;;6.53;1.10;;;21.40;56.20;;;;;;4943804;28;20215;-73
2023/06/02 12:11:03;;;;;;;3.53;1.67;;;20.80;56.90;;;;;;4943302;28;20656;-71
2023/06/02 12:13:30;;;;;;;1.97;1.10;;;20.80;62.70;;;;;;4942636;28;20226;-71
2023/06/02 12:16:17;;;;;;;11.53;1.23;;;21.10;58.40;;;;;;4945608;28;20202;-70
2023/06/02 12:18:43;;;;;;;2.73;1.63;;;21.30;56.90;;;;;;4945460;28;20316;-71
2023/06/02 12:21:25;;;;;;;3.83;1.20;;;21.70;56.00;;;;;;4952114;28;20328;-71
2023/06/02 12:23:51;;;;;;;2.10;1.10;;;21.90;56.50;;;;;;4956339;28;20740;-71
2023/06/02 12:26:16;;;;;;;2.00;1.10;;;22.20;53.00;;;;;;4958350;28;20217;-72
2023/06/02 12:28:42;;;;;;;1.97;1.17;;;22.50;52.70;;;;;;4951458;28;20616;-70
2023/06/02 12:31:08;;;;;;;2.30;0.93;;;22.30;49.60;;;;;;4945338;28;20226;-70
2023/06/02 12:33:34;;;;;;;2.50;1.20;;;22.30;50.00;;;;;;4946272;28;20706;-71
2023/06/02 12:36:00;;;;;;;2.10;1.63;;;22.60;46.40;;;;;;4946764;28;20291;-71
2023/06/02 12:38:27;;;;;;;4.87;0.83;;;22.50;47.30;;;;;;4953302;28;20970;-72
2023/06/02 12:40:52;;;;;;;1.00;0.93;;;22.40;45.00;;;;;;4957584;28;20197;-71
2023/06/02 12:43:19;;;;;;;1.15;0.80;;;22.40;45.00;;;;;;4951566;28;20222;-71